AAL1864 KLAX-KSFO
Flight info
| Callsign | AAL1864 |
|---|---|
| Flight time | 0h 54m |
| Altitude | 30000 |
| Route | SUMMR2 STOKD SERFR SERFR4 |
| Aircraft | B738/M-SDE2E3FGHIRWXY/LB1 |
Departure
| Time | 2026-04-26 19:04 |
|---|---|
| Airport | Los Angeles International Airport (KLAX) |
Arrival
| Time | 2026-04-26 19:59 |
|---|---|
| Airport | San Francisco International Airport (KSFO) |
| Time | Latitude | Longitude | Altitude | Speed | Heading |
|---|---|---|---|---|---|
| 2026-04-26 18:41 | 33.94044 | -118.40498 | 122 ft | 0 kts | 83° |
| 2026-04-26 18:45 | 33.94042 | -118.40516 | 122 ft | 2 kts | 84° |
| 2026-04-26 18:45 | 33.94041 | -118.40534 | 123 ft | 2 kts | 94° |
| 2026-04-26 18:45 | 33.94046 | -118.40550 | 123 ft | 2 kts | 128° |
| 2026-04-26 18:45 | 33.94058 | -118.40559 | 123 ft | 2 kts | 160° |
| 2026-04-26 18:46 | 33.94073 | -118.40556 | 123 ft | 3 kts | 221° |
| 2026-04-26 18:46 | 33.94088 | -118.40541 | 122 ft | 0 kts | 235° |
| 2026-04-26 18:46 | 33.94085 | -118.40536 | 122 ft | 0 kts | 78° |
| 2026-04-26 18:48 | 33.94083 | -118.40541 | 122 ft | 2 kts | 77° |
| 2026-04-26 18:48 | 33.94083 | -118.40544 | 122 ft | 0 kts | 77° |
| 2026-04-26 18:55 | 33.94086 | -118.40540 | 121 ft | 2 kts | 34° |
| 2026-04-26 18:55 | 33.94089 | -118.40556 | 121 ft | 3 kts | 218° |
| 2026-04-26 18:55 | 33.94057 | -118.40560 | 122 ft | 4 kts | 175° |
| 2026-04-26 18:56 | 33.94044 | -118.40559 | 122 ft | 0 kts | 176° |
| 2026-04-26 18:56 | 33.94043 | -118.40558 | 122 ft | 0 kts | 177° |
| 2026-04-26 18:56 | 33.94034 | -118.40557 | 122 ft | 3 kts | 176° |
| 2026-04-26 18:56 | 33.93998 | -118.40552 | 122 ft | 6 kts | 175° |
| 2026-04-26 18:57 | 33.93933 | -118.40549 | 122 ft | 13 kts | 194° |
| 2026-04-26 18:57 | 33.93906 | -118.40577 | 122 ft | 17 kts | 243° |
| 2026-04-26 18:57 | 33.93881 | -118.40783 | 125 ft | 12 kts | 263° |
| 2026-04-26 18:57 | 33.93870 | -118.40883 | 125 ft | 11 kts | 263° |
| 2026-04-26 18:58 | 33.93861 | -118.40978 | 125 ft | 12 kts | 263° |
| 2026-04-26 18:58 | 33.93849 | -118.41096 | 125 ft | 14 kts | 264° |
| 2026-04-26 18:58 | 33.93840 | -118.41213 | 125 ft | 13 kts | 275° |
| 2026-04-26 18:58 | 33.93919 | -118.41273 | 124 ft | 15 kts | 352° |
| 2026-04-26 18:59 | 33.94033 | -118.41289 | 121 ft | 17 kts | 352° |
| 2026-04-26 18:59 | 33.94148 | -118.41305 | 119 ft | 15 kts | 353° |
| 2026-04-26 18:59 | 33.94246 | -118.41322 | 119 ft | 13 kts | 352° |
| 2026-04-26 18:59 | 33.94346 | -118.41334 | 119 ft | 14 kts | 354° |
| 2026-04-26 19:00 | 33.94454 | -118.41351 | 119 ft | 15 kts | 353° |
| 2026-04-26 19:00 | 33.94554 | -118.41365 | 119 ft | 11 kts | 353° |
| 2026-04-26 19:00 | 33.94621 | -118.41376 | 119 ft | 8 kts | 353° |
| 2026-04-26 19:00 | 33.94702 | -118.41387 | 119 ft | 15 kts | 353° |
| 2026-04-26 19:01 | 33.94790 | -118.41325 | 121 ft | 19 kts | 79° |
| 2026-04-26 19:01 | 33.94807 | -118.41167 | 122 ft | 18 kts | 84° |
| 2026-04-26 19:01 | 33.94824 | -118.41017 | 122 ft | 17 kts | 83° |
| 2026-04-26 19:01 | 33.94838 | -118.40878 | 122 ft | 16 kts | 83° |
| 2026-04-26 19:02 | 33.94852 | -118.40744 | 120 ft | 16 kts | 83° |
| 2026-04-26 19:02 | 33.94867 | -118.40607 | 119 ft | 16 kts | 82° |
| 2026-04-26 19:02 | 33.94879 | -118.40475 | 118 ft | 15 kts | 84° |
| 2026-04-26 19:02 | 33.94883 | -118.40432 | 118 ft | 15 kts | 84° |
| 2026-04-26 19:03 | 33.94907 | -118.40192 | 116 ft | 17 kts | 83° |
| 2026-04-26 19:03 | 33.94923 | -118.40043 | 113 ft | 18 kts | 83° |
| 2026-04-26 19:03 | 33.94975 | -118.39927 | 111 ft | 16 kts | 16° |
| 2026-04-26 19:03 | 33.95036 | -118.39996 | 112 ft | 14 kts | 268° |
| 2026-04-26 19:04 | 33.95004 | -118.40327 | 116 ft | 73 kts | 263° |
| 2026-04-26 19:04 | 33.94911 | -118.41206 | 123 ft | 137 kts | 263° |
| 2026-04-26 19:04 | 33.94785 | -118.42464 | 495 ft | 165 kts | 263° |
| 2026-04-26 19:04 | 33.94682 | -118.43901 | 1236 ft | 179 kts | 266° |
| 2026-04-26 19:05 | 33.94373 | -118.46873 | 2486 ft | 200 kts | 266° |
| 2026-04-26 19:05 | 33.94307 | -118.48631 | 2872 ft | 222 kts | 268° |
| 2026-04-26 19:05 | 33.94247 | -118.50536 | 3463 ft | 236 kts | 267° |
| 2026-04-26 19:06 | 33.94110 | -118.52546 | 4031 ft | 250 kts | 265° |
| 2026-04-26 19:06 | 33.93937 | -118.54642 | 4822 ft | 255 kts | 265° |
| 2026-04-26 19:06 | 33.93763 | -118.56795 | 5697 ft | 257 kts | 266° |
| 2026-04-26 19:06 | 33.93594 | -118.58933 | 6499 ft | 260 kts | 266° |
| 2026-04-26 19:07 | 33.93424 | -118.61108 | 7370 ft | 261 kts | 266° |
| 2026-04-26 19:07 | 33.93254 | -118.63268 | 8242 ft | 260 kts | 266° |
| 2026-04-26 19:07 | 33.93086 | -118.65416 | 9045 ft | 262 kts | 266° |
| 2026-04-26 19:07 | 33.92916 | -118.67606 | 9833 ft | 264 kts | 266° |
| 2026-04-26 19:08 | 33.92743 | -118.69839 | 10469 ft | 272 kts | 266° |
| 2026-04-26 19:08 | 33.92691 | -118.70517 | 10594 ft | 276 kts | 266° |
| 2026-04-26 19:08 | 33.92661 | -118.70915 | 10688 ft | 279 kts | 266° |
| 2026-04-26 19:08 | 33.92478 | -118.73289 | 11083 ft | 295 kts | 266° |
| 2026-04-26 19:09 | 33.92282 | -118.75808 | 11476 ft | 310 kts | 266° |
| 2026-04-26 19:09 | 33.92074 | -118.78467 | 11876 ft | 325 kts | 266° |
| 2026-04-26 19:09 | 33.91859 | -118.81206 | 11961 ft | 338 kts | 266° |
| 2026-04-26 19:09 | 33.91719 | -118.84063 | 11971 ft | 336 kts | 271° |
| 2026-04-26 19:10 | 33.91767 | -118.86855 | 12643 ft | 337 kts | 273° |
| 2026-04-26 19:10 | 33.91862 | -118.89636 | 13570 ft | 333 kts | 274° |
| 2026-04-26 19:10 | 33.91958 | -118.92436 | 14201 ft | 338 kts | 274° |
| 2026-04-26 19:10 | 33.92048 | -118.95266 | 14873 ft | 342 kts | 273° |
| 2026-04-26 19:11 | 33.92176 | -118.98152 | 15535 ft | 344 kts | 276° |
| 2026-04-26 19:11 | 33.92577 | -119.00987 | 16151 ft | 347 kts | 284° |
| 2026-04-26 19:11 | 33.93412 | -119.03696 | 16705 ft | 352 kts | 295° |
| 2026-04-26 19:11 | 33.94635 | -119.06355 | 17266 ft | 357 kts | 300° |
| 2026-04-26 19:12 | 33.95947 | -119.08909 | 17835 ft | 361 kts | 301° |
| 2026-04-26 19:12 | 33.97304 | -119.11504 | 18413 ft | 365 kts | 301° |
| 2026-04-26 19:12 | 33.98675 | -119.14125 | 19041 ft | 367 kts | 301° |
| 2026-04-26 19:12 | 34.00155 | -119.16668 | 19605 ft | 372 kts | 306° |
| 2026-04-26 19:13 | 34.01900 | -119.19044 | 20183 ft | 376 kts | 313° |
| 2026-04-26 19:13 | 34.03919 | -119.21124 | 20735 ft | 381 kts | 319° |
| 2026-04-26 19:13 | 34.06113 | -119.23071 | 21326 ft | 383 kts | 321° |
| 2026-04-26 19:13 | 34.08313 | -119.24953 | 21806 ft | 388 kts | 321° |
| 2026-04-26 19:14 | 34.10520 | -119.26832 | 22353 ft | 389 kts | 321° |
| 2026-04-26 19:14 | 34.12779 | -119.28762 | 22850 ft | 392 kts | 321° |
| 2026-04-26 19:14 | 34.15030 | -119.30692 | 23327 ft | 395 kts | 321° |
| 2026-04-26 19:14 | 34.15770 | -119.31327 | 23492 ft | 396 kts | 321° |
| 2026-04-26 19:15 | 34.19609 | -119.34629 | 24286 ft | 401 kts | 321° |
| 2026-04-26 19:15 | 34.21909 | -119.36611 | 24679 ft | 405 kts | 321° |
| 2026-04-26 19:15 | 34.24249 | -119.38629 | 25191 ft | 407 kts | 321° |
| 2026-04-26 19:15 | 34.26568 | -119.40631 | 25614 ft | 410 kts | 321° |
| 2026-04-26 19:16 | 34.28920 | -119.42663 | 26016 ft | 413 kts | 321° |
| 2026-04-26 19:16 | 34.31255 | -119.44682 | 26465 ft | 415 kts | 321° |
| 2026-04-26 19:16 | 34.33678 | -119.46779 | 26920 ft | 417 kts | 321° |
| 2026-04-26 19:16 | 34.36019 | -119.48807 | 27313 ft | 419 kts | 321° |
| 2026-04-26 19:17 | 34.38379 | -119.50851 | 27970 ft | 414 kts | 320° |
| 2026-04-26 19:17 | 34.40671 | -119.53029 | 28572 ft | 408 kts | 315° |
| 2026-04-26 19:17 | 34.42760 | -119.55361 | 29021 ft | 407 kts | 312° |
| 2026-04-26 19:17 | 34.44752 | -119.57742 | 29503 ft | 405 kts | 311° |
| 2026-04-26 19:18 | 34.46747 | -119.60171 | 29938 ft | 405 kts | 311° |
| 2026-04-26 19:18 | 34.50738 | -119.65065 | 29998 ft | 409 kts | 310° |
| 2026-04-26 19:19 | 34.54711 | -119.69946 | 30009 ft | 403 kts | 311° |
| 2026-04-26 19:19 | 34.58659 | -119.74814 | 29996 ft | 406 kts | 310° |
| 2026-04-26 19:20 | 34.62602 | -119.79684 | 30010 ft | 405 kts | 311° |
| 2026-04-26 19:20 | 34.66568 | -119.84589 | 30002 ft | 407 kts | 311° |
| 2026-04-26 19:21 | 34.70504 | -119.89461 | 30005 ft | 394 kts | 311° |
| 2026-04-26 19:21 | 34.74376 | -119.94270 | 29990 ft | 406 kts | 311° |
| 2026-04-26 19:22 | 34.78355 | -119.99218 | 29987 ft | 408 kts | 311° |
| 2026-04-26 19:22 | 34.82324 | -120.04153 | 29993 ft | 405 kts | 311° |
| 2026-04-26 19:23 | 34.86299 | -120.09109 | 29983 ft | 406 kts | 311° |
| 2026-04-26 19:23 | 34.90290 | -120.14089 | 29983 ft | 407 kts | 311° |
| 2026-04-26 19:24 | 34.94309 | -120.19113 | 29993 ft | 407 kts | 311° |
| 2026-04-26 19:24 | 35.00301 | -120.26618 | 29995 ft | 407 kts | 311° |
| 2026-04-26 19:25 | 35.02944 | -120.29932 | 29991 ft | 407 kts | 311° |
| 2026-04-26 19:25 | 35.08254 | -120.36603 | 30000 ft | 407 kts | 311° |
| 2026-04-26 19:26 | 35.12365 | -120.41415 | 29996 ft | 409 kts | 315° |
| 2026-04-26 19:26 | 35.16637 | -120.46130 | 30000 ft | 409 kts | 315° |
| 2026-04-26 19:27 | 35.20845 | -120.50806 | 29998 ft | 408 kts | 315° |
| 2026-04-26 19:27 | 35.25038 | -120.55497 | 29995 ft | 408 kts | 315° |
| 2026-04-26 19:28 | 35.29301 | -120.60071 | 29996 ft | 410 kts | 320° |
| 2026-04-26 19:28 | 35.33913 | -120.64178 | 29992 ft | 411 kts | 322° |
| 2026-04-26 19:29 | 35.38565 | -120.68272 | 29999 ft | 410 kts | 321° |
| 2026-04-26 19:29 | 35.43170 | -120.72377 | 29993 ft | 411 kts | 321° |
| 2026-04-26 19:30 | 35.47769 | -120.76505 | 29997 ft | 410 kts | 321° |
| 2026-04-26 19:30 | 35.50848 | -120.79279 | 29989 ft | 410 kts | 321° |
| 2026-04-26 19:31 | 35.56995 | -120.84834 | 29988 ft | 412 kts | 321° |
| 2026-04-26 19:31 | 35.61598 | -120.89002 | 29984 ft | 411 kts | 321° |
| 2026-04-26 19:32 | 35.66190 | -120.93169 | 29990 ft | 411 kts | 321° |
| 2026-04-26 19:32 | 35.70785 | -120.97343 | 29986 ft | 410 kts | 321° |
| 2026-04-26 19:33 | 35.75344 | -121.01492 | 29983 ft | 410 kts | 321° |
| 2026-04-26 19:33 | 35.79973 | -121.05712 | 29978 ft | 411 kts | 321° |
| 2026-04-26 19:34 | 35.84543 | -121.09883 | 29977 ft | 408 kts | 321° |
| 2026-04-26 19:34 | 35.89175 | -121.14117 | 29981 ft | 408 kts | 321° |
| 2026-04-26 19:35 | 35.93814 | -121.18366 | 29982 ft | 411 kts | 321° |
| 2026-04-26 19:35 | 35.98391 | -121.22562 | 29976 ft | 409 kts | 321° |
| 2026-04-26 19:36 | 36.01484 | -121.25402 | 29977 ft | 409 kts | 321° |
| 2026-04-26 19:36 | 36.07633 | -121.31055 | 29980 ft | 408 kts | 321° |
| 2026-04-26 19:37 | 36.12171 | -121.35235 | 29979 ft | 409 kts | 321° |
| 2026-04-26 19:37 | 36.16744 | -121.39453 | 29975 ft | 408 kts | 321° |
| 2026-04-26 19:38 | 36.21284 | -121.43646 | 29965 ft | 406 kts | 321° |
| 2026-04-26 19:38 | 36.23568 | -121.45757 | 29957 ft | 394 kts | 321° |
| 2026-04-26 19:38 | 36.25723 | -121.47748 | 29834 ft | 381 kts | 321° |
| 2026-04-26 19:39 | 36.27839 | -121.49707 | 29482 ft | 375 kts | 321° |
| 2026-04-26 19:39 | 36.29923 | -121.51640 | 29003 ft | 372 kts | 321° |
| 2026-04-26 19:39 | 36.31985 | -121.53554 | 28531 ft | 369 kts | 321° |
| 2026-04-26 19:39 | 36.34050 | -121.55473 | 28013 ft | 367 kts | 321° |
| 2026-04-26 19:40 | 36.36067 | -121.57347 | 27528 ft | 364 kts | 321° |
| 2026-04-26 19:40 | 36.38100 | -121.59238 | 27041 ft | 361 kts | 321° |
| 2026-04-26 19:40 | 36.40095 | -121.61092 | 26542 ft | 359 kts | 321° |
| 2026-04-26 19:40 | 36.42071 | -121.62932 | 26100 ft | 355 kts | 321° |
| 2026-04-26 19:41 | 36.44046 | -121.64771 | 25585 ft | 353 kts | 321° |
| 2026-04-26 19:41 | 36.46009 | -121.66601 | 25103 ft | 351 kts | 320° |
| 2026-04-26 19:41 | 36.47961 | -121.68420 | 24631 ft | 348 kts | 320° |
| 2026-04-26 19:41 | 36.48601 | -121.69018 | 24466 ft | 348 kts | 320° |
| 2026-04-26 19:42 | 36.51908 | -121.71882 | 23681 ft | 345 kts | 324° |
| 2026-04-26 19:42 | 36.53949 | -121.73471 | 23205 ft | 343 kts | 324° |
| 2026-04-26 19:42 | 36.55971 | -121.75040 | 22745 ft | 341 kts | 324° |
| 2026-04-26 19:42 | 36.57996 | -121.76620 | 22272 ft | 340 kts | 324° |
| 2026-04-26 19:43 | 36.59977 | -121.78175 | 21800 ft | 338 kts | 324° |
| 2026-04-26 19:43 | 36.61948 | -121.79728 | 21357 ft | 336 kts | 324° |
| 2026-04-26 19:43 | 36.63940 | -121.81302 | 20880 ft | 335 kts | 324° |
| 2026-04-26 19:43 | 36.65918 | -121.82867 | 20419 ft | 333 kts | 324° |
| 2026-04-26 19:44 | 36.67881 | -121.84423 | 19955 ft | 331 kts | 324° |
| 2026-04-26 19:44 | 36.69813 | -121.85955 | 19491 ft | 330 kts | 324° |
| 2026-04-26 19:44 | 36.71755 | -121.87481 | 19046 ft | 328 kts | 325° |
| 2026-04-26 19:44 | 36.73626 | -121.88777 | 18613 ft | 328 kts | 330° |
| 2026-04-26 19:45 | 36.75760 | -121.89813 | 18168 ft | 330 kts | 339° |
| 2026-04-26 19:45 | 36.77999 | -121.90530 | 17698 ft | 330 kts | 343° |
| 2026-04-26 19:45 | 36.80244 | -121.91148 | 17251 ft | 329 kts | 343° |
| 2026-04-26 19:45 | 36.82476 | -121.91754 | 16817 ft | 327 kts | 343° |
| 2026-04-26 19:46 | 36.84704 | -121.92367 | 16341 ft | 326 kts | 343° |
| 2026-04-26 19:46 | 36.86900 | -121.92976 | 15920 ft | 324 kts | 343° |
| 2026-04-26 19:46 | 36.89111 | -121.93592 | 15451 ft | 323 kts | 343° |
| 2026-04-26 19:46 | 36.91308 | -121.94206 | 15004 ft | 322 kts | 344° |
| 2026-04-26 19:47 | 36.93496 | -121.94818 | 14555 ft | 320 kts | 344° |
| 2026-04-26 19:47 | 36.94215 | -121.95019 | 14399 ft | 320 kts | 344° |
| 2026-04-26 19:47 | 36.97755 | -121.96221 | 13675 ft | 315 kts | 340° |
| 2026-04-26 19:47 | 36.99837 | -121.97063 | 13224 ft | 314 kts | 339° |
| 2026-04-26 19:48 | 37.01923 | -121.97902 | 12779 ft | 312 kts | 340° |
| 2026-04-26 19:48 | 37.03965 | -121.98710 | 12351 ft | 311 kts | 340° |
| 2026-04-26 19:48 | 37.06038 | -121.99524 | 11917 ft | 310 kts | 340° |
| 2026-04-26 19:48 | 37.08097 | -122.00330 | 11498 ft | 308 kts | 340° |
| 2026-04-26 19:49 | 37.10140 | -122.01130 | 11058 ft | 307 kts | 340° |
| 2026-04-26 19:49 | 37.12195 | -122.01934 | 10612 ft | 307 kts | 340° |
| 2026-04-26 19:49 | 37.14203 | -122.02719 | 10213 ft | 305 kts | 341° |
| 2026-04-26 19:49 | 37.16201 | -122.03501 | 9990 ft | 297 kts | 340° |
| 2026-04-26 19:50 | 37.18153 | -122.04263 | 9853 ft | 286 kts | 341° |
| 2026-04-26 19:50 | 37.20046 | -122.05006 | 9435 ft | 286 kts | 341° |
| 2026-04-26 19:50 | 37.21929 | -122.05746 | 9032 ft | 286 kts | 341° |
| 2026-04-26 19:50 | 37.23818 | -122.06486 | 8678 ft | 282 kts | 341° |
| 2026-04-26 19:51 | 37.25683 | -122.07218 | 8317 ft | 279 kts | 341° |
| 2026-04-26 19:51 | 37.27522 | -122.07941 | 8020 ft | 273 kts | 341° |
| 2026-04-26 19:51 | 37.29297 | -122.08638 | 7719 ft | 267 kts | 341° |
| 2026-04-26 19:51 | 37.31078 | -122.09340 | 7237 ft | 265 kts | 341° |
| 2026-04-26 19:52 | 37.32811 | -122.10023 | 6888 ft | 259 kts | 342° |
| 2026-04-26 19:52 | 37.34526 | -122.10700 | 6541 ft | 255 kts | 342° |
| 2026-04-26 19:52 | 37.36192 | -122.11358 | 6224 ft | 250 kts | 342° |
| 2026-04-26 19:52 | 37.37833 | -122.11992 | 5988 ft | 241 kts | 343° |
| 2026-04-26 19:53 | 37.39449 | -122.12553 | 5656 ft | 240 kts | 344° |
| 2026-04-26 19:53 | 37.41050 | -122.13094 | 5322 ft | 237 kts | 344° |
| 2026-04-26 19:53 | 37.42614 | -122.13686 | 4997 ft | 234 kts | 336° |
| 2026-04-26 19:53 | 37.44042 | -122.14630 | 4638 ft | 231 kts | 329° |
| 2026-04-26 19:54 | 37.45426 | -122.15610 | 4345 ft | 226 kts | 329° |
| 2026-04-26 19:54 | 37.46782 | -122.16563 | 4067 ft | 222 kts | 329° |
| 2026-04-26 19:54 | 37.48113 | -122.17499 | 3849 ft | 217 kts | 329° |
| 2026-04-26 19:54 | 37.49433 | -122.18428 | 3704 ft | 211 kts | 329° |
| 2026-04-26 19:55 | 37.50666 | -122.19293 | 3584 ft | 200 kts | 329° |
| 2026-04-26 19:55 | 37.51892 | -122.20157 | 3161 ft | 204 kts | 329° |
| 2026-04-26 19:55 | 37.53142 | -122.21037 | 2746 ft | 207 kts | 329° |
| 2026-04-26 19:55 | 37.54383 | -122.21910 | 2472 ft | 201 kts | 329° |
| 2026-04-26 19:56 | 37.55492 | -122.22855 | 2236 ft | 183 kts | 312° |
| 2026-04-26 19:56 | 37.56170 | -122.24143 | 2010 ft | 171 kts | 298° |
| 2026-04-26 19:56 | 37.56751 | -122.25414 | 1800 ft | 166 kts | 297° |
| 2026-04-26 19:56 | 37.57294 | -122.26685 | 1583 ft | 161 kts | 296° |
| 2026-04-26 19:57 | 37.57811 | -122.27900 | 1373 ft | 153 kts | 296° |
| 2026-04-26 19:57 | 37.58309 | -122.29079 | 1183 ft | 154 kts | 296° |
| 2026-04-26 19:57 | 37.58814 | -122.30272 | 979 ft | 153 kts | 296° |
| 2026-04-26 19:57 | 37.59314 | -122.31454 | 785 ft | 152 kts | 296° |
| 2026-04-26 19:58 | 37.59799 | -122.32600 | 577 ft | 147 kts | 296° |
| 2026-04-26 19:58 | 37.60295 | -122.33741 | 387 ft | 146 kts | 298° |
| 2026-04-26 19:58 | 37.60759 | -122.34863 | 191 ft | 144 kts | 294° |
| 2026-04-26 19:58 | 37.61214 | -122.35941 | 66 ft | 138 kts | 296° |
| 2026-04-26 19:59 | 37.61642 | -122.36950 | 12 ft | 117 kts | 296° |
| 2026-04-26 19:59 | 37.61921 | -122.37623 | 24 ft | 58 kts | 298° |
| 2026-04-26 19:59 | 37.62005 | -122.37873 | 29 ft | 15 kts | 247° |
| 2026-04-26 19:59 | 37.61955 | -122.37950 | 30 ft | 0 kts | 226° |
| 2026-04-26 20:00 | 37.61948 | -122.37957 | 30 ft | 2 kts | 206° |
| 2026-04-26 20:00 | 37.61907 | -122.37938 | 30 ft | 10 kts | 148° |
| 2026-04-26 20:00 | 37.61830 | -122.37863 | 28 ft | 17 kts | 122° |
| 2026-04-26 20:01 | 37.61783 | -122.37716 | 25 ft | 18 kts | 111° |
| 2026-04-26 20:01 | 37.61736 | -122.37560 | 20 ft | 19 kts | 115° |
| 2026-04-26 20:01 | 37.61664 | -122.37451 | 17 ft | 15 kts | 168° |
| 2026-04-26 20:01 | 37.61565 | -122.37488 | 18 ft | 16 kts | 208° |
| 2026-04-26 20:02 | 37.61454 | -122.37563 | 20 ft | 19 kts | 209° |
| 2026-04-26 20:02 | 37.61332 | -122.37654 | 24 ft | 18 kts | 223° |
| 2026-04-26 20:02 | 37.61292 | -122.37784 | 26 ft | 14 kts | 275° |
| 2026-04-26 20:02 | 37.61299 | -122.37824 | 27 ft | 13 kts | 289° |
| 2026-04-26 20:03 | 37.61377 | -122.38021 | 31 ft | 17 kts | 297° |
| 2026-04-26 20:03 | 37.61468 | -122.38092 | 31 ft | 16 kts | 23° |
| 2026-04-26 20:03 | 37.61569 | -122.38072 | 31 ft | 14 kts | 320° |
| 2026-04-26 20:03 | 37.61618 | -122.38137 | 31 ft | 7 kts | 12° |
| 2026-04-26 20:04 | 37.61653 | -122.38125 | 31 ft | 0 kts | 17° |